This is the latest recevied weather packets stored in our database for station/object WA7ABU-29. If no packets are shown the sender has not sent any weather packets the latest 10 day(s).
| Time | Temp. | Humidity | Pressure | Rain* | Wind** | Luminosity | Snow |
|---|---|---|---|---|---|---|---|
| 1777616355 | 14.44° C | 66% | 997 hPa | 0 mm | - | - | - |
| 1777615859 | 14.44° C | 66% | 997.3 hPa | 0 mm | - | - | - |
| 1777615433 | 15° C | 65% | 997 hPa | 0 mm | - | - | - |
| 1777615050 | 15° C | 64% | 997 hPa | 0 mm | - | - | - |
| 1777614400 | 15° C | 65% | 997 hPa | 0 mm | - | - | - |
| 1777613657 | 15° C | 64% | 997 hPa | 0 mm | - | - | - |
| 1777612881 | 16.11° C | 59% | 997 hPa | 0 mm | - | - | - |
| 1777612386 | 16.11° C | 59% | 997 hPa | 0 mm | - | - | - |
| 1777611710 | 16.11° C | 59% | 996.6 hPa | 0 mm | - | - | - |
| 1777611453 | 16.11° C | 59% | 997 hPa | 0 mm | - | - | - |
| 1777611329 | 15.56° C | 60% | 997 hPa | 0 mm | - | - | - |
| 1777611081 | 16.11° C | 60% | 996.6 hPa | 0 mm | - | - | - |
| 1777610586 | 16.11° C | 60% | 997 hPa | 0 mm | - | - | - |
| 1777609779 | 16.11° C | 61% | 996.6 hPa | 0 mm | - | - | - |
| 1777608540 | 17.22° C | 60% | 996.3 hPa | 0 mm | - | - | - |
| 1777608292 | 17.22° C | 60% | 996.3 hPa | 0 mm | - | - | - |
| 1777608045 | 16.67° C | 61% | 995.9 hPa | 0 mm | - | - | - |
| 1777607549 | 16.67° C | 63% | 996.3 hPa | 0 mm | - | - | - |
| 1777606752 | 17.22° C | 61% | 996.3 hPa | 0 mm | - | - | - |
| 1777606504 | 16.67° C | 61% | 996.3 hPa | 0 mm | - | - | - |
| 1777606111 | 16.67° C | 62% | 996.3 hPa | 0 mm | - | - | - |
| 1777604889 | 16.67° C | 64% | 995.9 hPa | 0 mm | - | - | - |
| 1777604642 | 16.67° C | 64% | 995.9 hPa | 0 mm | - | - | - |
| 1777604518 | 17.22° C | 64% | 995.9 hPa | 0 mm | - | - | - |
| 1777604271 | 17.22° C | 64% | 995.6 hPa | 0 mm | - | - | - |
* Rain latest hour (hover to see other rain measurements)
** Current wind speed in m/s (hover to see current wind gust speed)